Time;durP1;ratioP1;P1;durP2;ratioP2;P2;SDS_P1;SDS_P2;PMS_P1;PMS_P2;Temp;Humidity;BMP_temperature;BMP_pressure;BME280_temperature;BME280_humidity;BME280_pressure;Samples;Min_cycle;Max_cycle;Signal;HPM_P1;HPM_P2
2022/01/27 00:01:58;;;;;;;32.57;18.07;;;0.40;99.90;;;;;;5054344;28;20503;-68
2022/01/27 00:04:33;;;;;;;34.03;18.10;;;0.40;99.90;;;;;;5071032;28;20505;-68
2022/01/27 00:07:00;;;;;;;34.53;18.57;;;0.50;99.90;;;;;;5069466;28;20493;-68
2022/01/27 00:09:42;;;;;;;40.67;18.23;;;0.60;99.90;;;;;;5071471;28;20522;-67
2022/01/27 00:12:14;;;;;;;39.70;18.10;;;0.60;99.90;;;;;;5071422;28;20981;-68
2022/01/27 00:14:46;;;;;;;35.63;18.00;;;0.60;99.90;;;;;;5070524;28;20542;-67
2022/01/27 00:17:15;;;;;;;30.93;17.73;;;0.60;99.90;;;;;;5070945;28;20447;-68
2022/01/27 00:19:42;;;;;;;23.67;17.23;;;0.60;99.90;;;;;;5070846;28;20443;-68
2022/01/27 00:22:09;;;;;;;34.43;18.67;;;0.60;99.90;;;;;;5070900;28;20478;-68
2022/01/27 00:24:36;;;;;;;30.90;17.47;;;0.70;99.90;;;;;;5070876;28;20750;-68
2022/01/27 00:27:03;;;;;;;32.10;17.90;;;0.70;99.90;;;;;;5070466;28;20485;-68
2022/01/27 00:29:31;;;;;;;30.50;17.60;;;0.70;99.90;;;;;;5070432;28;21188;-69
2022/01/27 00:31:58;;;;;;;36.97;18.63;;;0.60;99.90;;;;;;5070169;28;20951;-70
2022/01/27 00:34:25;;;;;;;30.03;17.53;;;0.60;99.90;;;;;;5070996;28;20447;-68
2022/01/27 00:36:52;;;;;;;35.03;18.00;;;0.70;99.90;;;;;;5070678;28;20432;-68
2022/01/27 00:39:19;;;;;;;30.70;17.93;;;0.80;99.90;;;;;;5069961;28;20929;-68
2022/01/27 00:41:46;;;;;;;31.93;17.10;;;0.70;99.90;;;;;;5070647;28;20460;-68
2022/01/27 00:44:14;;;;;;;31.83;16.67;;;0.80;99.90;;;;;;5070498;28;20483;-68
2022/01/27 00:46:43;;;;;;;33.23;17.90;;;0.80;99.90;;;;;;5070240;28;20945;-68
2022/01/27 00:49:10;;;;;;;29.83;16.40;;;0.80;99.90;;;;;;5070390;28;20882;-68
2022/01/27 00:51:39;;;;;;;33.93;18.87;;;0.90;99.90;;;;;;5070045;28;20991;-68
2022/01/27 00:54:12;;;;;;;33.23;16.90;;;0.90;99.90;;;;;;5070347;28;20522;-68
2022/01/27 00:56:46;;;;;;;30.17;16.70;;;0.90;99.90;;;;;;5070171;28;20463;-68
2022/01/27 00:59:28;;;;;;;33.00;18.70;;;0.90;99.90;;;;;;5069566;28;20936;-68
2022/01/27 01:02:05;;;;;;;29.33;17.43;;;0.90;99.90;;;;;;5070310;28;20559;-68
2022/01/27 01:04:36;;;;;;;33.23;18.07;;;0.80;99.90;;;;;;5070051;28;20459;-68
2022/01/27 01:07:04;;;;;;;30.20;17.70;;;0.70;99.90;;;;;;5069441;28;21015;-68
2022/01/27 01:15:04;;;;;;;30.37;18.10;;;0.50;99.90;;;;;;5068749;28;20440;-68
2022/01/27 01:20:35;;;;;;;29.23;16.83;;;0.60;99.90;;;;;;5069575;28;20562;-67
2022/01/27 01:31:29;;;;;;;28.20;17.43;;;0.70;99.90;;;;;;5069142;28;20830;-68
2022/01/27 01:34:10;;;;;;;31.23;16.73;;;0.70;99.90;;;;;;5069852;28;20460;-68
2022/01/27 01:36:45;;;;;;;29.53;17.60;;;0.90;99.90;;;;;;5069376;28;20925;-69
2022/01/27 01:39:12;;;;;;;32.17;15.47;;;0.90;99.90;;;;;;5069116;28;21040;-67
2022/01/27 01:41:40;;;;;;;34.77;18.20;;;0.90;99.90;;;;;;5069554;28;20519;-68
2022/01/27 01:44:07;;;;;;;30.07;17.50;;;0.80;99.90;;;;;;5069144;28;20960;-68
2022/01/27 01:46:35;;;;;;;31.23;17.90;;;0.90;99.90;;;;;;5069249;28;21166;-69
2022/01/27 01:49:03;;;;;;;31.77;17.07;;;0.90;99.90;;;;;;5069415;28;21012;-67
2022/01/27 01:51:32;;;;;;;35.53;19.10;;;1.00;99.90;;;;;;5069404;28;20452;-68
2022/01/27 01:53:59;;;;;;;26.90;16.90;;;0.80;99.90;;;;;;5069283;28;20539;-68
2022/01/27 01:56:26;;;;;;;35.30;17.73;;;0.70;99.90;;;;;;5069674;28;20999;-68
2022/01/27 01:58:53;;;;;;;27.40;16.27;;;0.80;99.90;;;;;;5069247;28;20940;-68
2022/01/27 02:01:21;;;;;;;33.20;17.57;;;0.70;99.90;;;;;;5068926;28;20454;-69
2022/01/27 02:03:48;;;;;;;27.67;16.60;;;0.70;99.90;;;;;;5069572;28;20518;-68
2022/01/27 02:06:22;;;;;;;29.33;16.70;;;0.80;99.90;;;;;;5069056;28;20550;-68
2022/01/27 02:09:07;;;;;;;32.17;16.60;;;0.80;99.90;;;;;;5069511;28;20515;-69
2022/01/27 02:19:51;;;;;;;28.10;16.90;;;0.70;99.90;;;;;;5068975;28;20455;-68
2022/01/27 02:22:19;;;;;;;32.03;18.27;;;0.70;99.90;;;;;;5069043;28;20551;-69
2022/01/27 02:24:46;;;;;;;28.13;16.67;;;0.70;99.90;;;;;;5069600;28;20731;-68
2022/01/27 02:27:15;;;;;;;28.17;16.17;;;0.80;99.90;;;;;;5070181;28;20812;-67
2022/01/27 02:29:44;;;;;;;37.63;17.67;;;0.80;99.90;;;;;;5072841;28;20924;-67
2022/01/27 02:32:12;;;;;;;30.03;16.50;;;0.80;99.90;;;;;;5073298;28;20467;-69
2022/01/27 02:34:39;;;;;;;34.43;17.47;;;0.80;99.90;;;;;;5073123;28;20493;-69
2022/01/27 02:37:08;;;;;;;32.07;18.43;;;0.80;99.90;;;;;;5073138;28;20530;-68
2022/01/27 02:39:35;;;;;;;29.23;15.63;;;0.80;99.90;;;;;;5072916;28;20886;-68
2022/01/27 02:42:07;;;;;;;32.13;17.10;;;0.70;99.90;;;;;;5073547;28;20569;-67
2022/01/27 02:44:39;;;;;;;30.03;16.80;;;0.70;99.90;;;;;;5073446;28;20447;-68
2022/01/27 02:47:06;;;;;;;27.00;16.63;;;0.70;99.90;;;;;;5074029;28;20806;-68
2022/01/27 02:49:33;;;;;;;33.00;16.93;;;0.70;99.90;;;;;;5074403;28;20434;-68
2022/01/27 02:52:00;;;;;;;28.20;16.03;;;0.80;99.90;;;;;;5074787;28;20836;-68
2022/01/27 02:54:28;;;;;;;29.83;17.93;;;0.70;99.90;;;;;;5072925;28;20449;-68
2022/01/27 02:56:55;;;;;;;31.20;18.80;;;0.60;99.90;;;;;;5072629;28;20454;-68
2022/01/27 02:59:23;;;;;;;28.33;17.80;;;0.60;99.90;;;;;;5072385;28;20545;-68
2022/01/27 03:01:51;;;;;;;28.90;17.13;;;0.70;99.90;;;;;;5072882;28;20483;-68
2022/01/27 03:04:19;;;;;;;25.10;16.77;;;0.60;99.90;;;;;;5073112;28;20447;-68
2022/01/27 03:06:47;;;;;;;30.03;16.10;;;0.50;99.90;;;;;;5073100;28;21027;-68
2022/01/27 03:09:14;;;;;;;30.13;16.53;;;0.50;99.90;;;;;;5072527;28;20489;-68
2022/01/27 03:11:47;;;;;;;26.23;15.73;;;0.50;99.90;;;;;;5072939;28;20477;-68
2022/01/27 03:14:16;;;;;;;26.13;16.10;;;0.40;99.90;;;;;;5072768;28;20458;-68
2022/01/27 03:16:43;;;;;;;27.80;16.40;;;0.40;99.90;;;;;;5072483;28;20786;-68
2022/01/27 03:19:11;;;;;;;33.50;18.40;;;0.40;99.90;;;;;;5072139;28;20463;-69
2022/01/27 03:21:38;;;;;;;28.63;15.63;;;0.30;99.90;;;;;;5072581;28;20543;-68
2022/01/27 03:24:05;;;;;;;27.47;13.67;;;0.30;99.90;;;;;;5072535;28;20867;-68
2022/01/27 03:26:32;;;;;;;25.73;14.83;;;0.30;99.90;;;;;;5071860;28;20439;-68
2022/01/27 03:29:00;;;;;;;30.53;16.63;;;0.30;99.90;;;;;;5071784;28;20566;-69
2022/01/27 03:31:28;;;;;;;29.17;16.60;;;0.30;99.90;;;;;;5071853;28;20957;-68
2022/01/27 03:33:55;;;;;;;30.27;17.23;;;0.30;99.90;;;;;;5072009;28;20457;-68
2022/01/27 03:36:23;;;;;;;28.93;14.60;;;0.30;99.90;;;;;;5071943;28;20448;-69
2022/01/27 03:38:50;;;;;;;29.83;17.30;;;0.40;99.90;;;;;;5071499;28;20454;-68
2022/01/27 03:41:21;;;;;;;33.03;18.10;;;0.40;99.90;;;;;;5071425;28;20451;-68
2022/01/27 03:43:48;;;;;;;29.73;16.33;;;0.40;99.90;;;;;;5071980;28;20482;-70
2022/01/27 03:46:17;;;;;;;33.23;17.50;;;0.40;99.90;;;;;;5072116;28;20454;-67
2022/01/27 03:48:45;;;;;;;27.63;16.03;;;0.40;99.90;;;;;;5071684;28;20482;-68
2022/01/27 03:51:12;;;;;;;31.43;16.40;;;0.50;99.90;;;;;;5071247;28;20984;-68
2022/01/27 03:53:39;;;;;;;31.70;18.10;;;0.50;99.90;;;;;;5071946;28;20484;-68
2022/01/27 03:56:07;;;;;;;28.47;15.13;;;0.50;99.90;;;;;;5071295;28;20475;-68
2022/01/27 03:58:34;;;;;;;29.50;17.50;;;0.50;99.90;;;;;;5071518;28;20427;-67
2022/01/27 04:01:02;;;;;;;27.90;15.30;;;0.40;99.90;;;;;;5070976;28;20822;-68
2022/01/27 04:03:32;;;;;;;36.13;17.53;;;0.30;99.90;;;;;;5071387;28;20495;-68
2022/01/27 04:06:06;;;;;;;31.67;17.83;;;0.40;99.90;;;;;;5071098;28;20459;-68
2022/01/27 04:08:33;;;;;;;32.30;17.13;;;0.50;99.90;;;;;;5071302;28;20587;-68
2022/01/27 04:11:00;;;;;;;35.50;16.90;;;0.50;99.90;;;;;;5071049;28;20459;-68
2022/01/27 04:13:27;;;;;;;31.33;18.03;;;0.60;99.90;;;;;;5071299;28;20470;-69
2022/01/27 04:15:54;;;;;;;29.23;16.53;;;0.60;99.90;;;;;;5071245;28;20478;-68
2022/01/27 04:18:21;;;;;;;34.37;16.97;;;0.60;99.90;;;;;;5071256;28;20456;-68
2022/01/27 04:20:49;;;;;;;29.03;16.57;;;0.60;99.90;;;;;;5071005;28;20544;-68
2022/01/27 04:23:17;;;;;;;30.37;15.50;;;0.60;99.90;;;;;;5070850;28;20464;-68
2022/01/27 04:25:45;;;;;;;28.47;17.23;;;0.60;99.90;;;;;;5070682;28;20458;-68
2022/01/27 04:28:15;;;;;;;28.07;17.50;;;0.60;99.90;;;;;;5070762;28;20601;-68
2022/01/27 04:30:42;;;;;;;30.00;15.93;;;0.70;99.90;;;;;;5070232;28;20450;-68
2022/01/27 04:33:09;;;;;;;27.80;16.43;;;0.70;99.90;;;;;;5070842;28;20570;-67
2022/01/27 04:35:41;;;;;;;29.73;18.33;;;0.60;99.90;;;;;;5070834;28;20932;-68
2022/01/27 04:38:30;;;;;;;30.67;17.07;;;0.60;99.90;;;;;;5070842;28;20456;-69
2022/01/27 04:41:05;;;;;;;31.30;16.33;;;0.60;99.90;;;;;;5070648;28;20684;-67
2022/01/27 04:43:39;;;;;;;29.40;17.03;;;0.50;99.90;;;;;;5070490;28;20474;-67
2022/01/27 04:46:16;;;;;;;26.40;14.83;;;0.50;99.90;;;;;;5070253;28;20520;-68
2022/01/27 04:48:43;;;;;;;33.80;18.03;;;0.40;99.90;;;;;;5070391;28;20844;-68
2022/01/27 04:51:14;;;;;;;34.17;17.70;;;0.30;99.90;;;;;;5069439;28;20963;-67
2022/01/27 04:53:47;;;;;;;32.33;17.53;;;0.30;99.90;;;;;;5070459;28;20509;-68
2022/01/27 04:56:15;;;;;;;40.87;17.30;;;0.30;99.90;;;;;;5070626;28;20466;-67
2022/01/27 04:58:45;;;;;;;33.83;19.27;;;0.30;99.90;;;;;;5070854;28;20438;-68
2022/01/27 05:01:13;;;;;;;33.17;17.00;;;0.30;99.90;;;;;;5069793;28;20945;-68
2022/01/27 05:03:44;;;;;;;30.73;16.00;;;0.40;99.90;;;;;;5068563;28;21176;-68
2022/01/27 05:06:11;;;;;;;30.70;18.80;;;0.40;99.90;;;;;;5069992;28;20490;-68
2022/01/27 05:08:38;;;;;;;30.23;16.00;;;0.40;99.90;;;;;;5069943;28;20479;-67
2022/01/27 05:11:12;;;;;;;31.20;16.97;;;0.50;99.90;;;;;;5069302;28;20526;-66
2022/01/27 05:13:47;;;;;;;28.80;17.20;;;0.60;99.90;;;;;;5069979;28;20467;-68
2022/01/27 05:16:14;;;;;;;27.20;17.23;;;0.70;99.90;;;;;;5069816;28;20486;-67
2022/01/27 05:18:41;;;;;;;31.60;16.23;;;0.70;99.90;;;;;;5069686;28;20444;-68
2022/01/27 05:21:08;;;;;;;29.03;16.60;;;0.70;99.90;;;;;;5069412;28;20446;-68
2022/01/27 05:23:35;;;;;;;27.67;17.10;;;0.70;99.90;;;;;;5069933;28;20526;-68
2022/01/27 05:26:01;;;;;;;23.87;15.17;;;0.70;99.90;;;;;;5069856;28;20858;-69
2022/01/27 05:28:30;;;;;;;31.40;15.90;;;0.70;99.90;;;;;;5069962;28;20463;-68
2022/01/27 05:30:57;;;;;;;29.87;17.73;;;0.70;99.90;;;;;;5069250;28;20431;-68
2022/01/27 05:33:24;;;;;;;27.83;15.83;;;0.60;99.90;;;;;;5069741;28;20562;-68
2022/01/27 05:35:51;;;;;;;28.60;15.40;;;0.60;99.90;;;;;;5070165;28;20446;-68
2022/01/27 05:38:18;;;;;;;23.60;15.40;;;0.70;99.90;;;;;;5070286;28;20538;-68
2022/01/27 05:40:45;;;;;;;33.80;17.23;;;0.60;99.90;;;;;;5069720;28;20478;-67
2022/01/27 05:43:13;;;;;;;28.33;15.27;;;0.60;99.90;;;;;;5069572;28;20490;-66
2022/01/27 05:45:41;;;;;;;29.57;17.73;;;0.60;99.90;;;;;;5069377;28;20439;-67
2022/01/27 05:48:08;;;;;;;26.03;14.37;;;0.60;99.90;;;;;;5069473;28;20475;-66
2022/01/27 05:50:36;;;;;;;30.00;15.50;;;0.60;99.90;;;;;;5068737;28;20440;-66
2022/01/27 05:53:03;;;;;;;27.70;14.30;;;0.50;99.90;;;;;;5069311;28;20467;-72
2022/01/27 05:55:30;;;;;;;28.73;14.00;;;0.60;99.90;;;;;;5069339;28;20570;-69
2022/01/27 05:57:57;;;;;;;27.37;16.10;;;0.50;99.90;;;;;;5068912;28;20523;-70
2022/01/27 06:00:24;;;;;;;31.43;18.20;;;0.50;99.90;;;;;;5065818;28;20444;-67
2022/01/27 06:02:52;;;;;;;25.80;15.87;;;0.50;99.90;;;;;;5064305;28;20494;-66
2022/01/27 06:05:19;;;;;;;26.47;15.73;;;0.50;99.90;;;;;;5055871;28;20466;-66
2022/01/27 06:07:45;;;;;;;28.07;17.37;;;0.40;99.90;;;;;;5060336;28;20448;-65
2022/01/27 06:10:12;;;;;;;29.63;17.07;;;0.50;99.90;;;;;;5059242;28;20841;-65
2022/01/27 06:12:51;;;;;;;31.27;17.70;;;0.50;99.90;;;;;;5056578;28;20467;-64
2022/01/27 06:15:18;;;;;;;27.20;15.63;;;0.50;99.90;;;;;;5066390;28;20471;-65
2022/01/27 06:17:45;;;;;;;26.70;16.77;;;0.50;99.90;;;;;;5067682;28;20467;-65
2022/01/27 06:20:14;;;;;;;28.00;16.30;;;0.50;99.90;;;;;;5068264;28;20435;-65
2022/01/27 06:22:41;;;;;;;30.07;16.97;;;0.50;99.90;;;;;;5067746;28;20878;-65
2022/01/27 06:25:09;;;;;;;27.03;15.50;;;0.50;99.90;;;;;;5066570;28;20636;-65
2022/01/27 06:27:36;;;;;;;32.30;17.90;;;0.50;99.90;;;;;;5068072;28;20475;-65
2022/01/27 06:30:06;;;;;;;31.33;17.60;;;0.60;99.90;;;;;;5068208;28;20830;-64
2022/01/27 06:32:33;;;;;;;36.60;20.20;;;0.60;99.90;;;;;;5068981;28;20504;-63
2022/01/27 06:35:03;;;;;;;45.17;22.67;;;0.60;99.90;;;;;;5068691;28;20443;-64
2022/01/27 06:37:31;;;;;;;42.13;20.33;;;0.60;99.90;;;;;;5068929;28;20662;-64
2022/01/27 06:39:58;;;;;;;44.87;24.60;;;0.60;99.90;;;;;;5068611;28;20483;-64
2022/01/27 06:42:25;;;;;;;39.30;21.63;;;0.60;99.90;;;;;;5068477;28;20472;-65
2022/01/27 06:44:53;;;;;;;42.60;22.17;;;0.50;99.90;;;;;;5068660;28;20542;-65
2022/01/27 06:47:20;;;;;;;38.90;22.00;;;0.50;99.90;;;;;;5068977;28;20451;-64
2022/01/27 06:49:47;;;;;;;46.37;22.30;;;0.40;99.90;;;;;;5068318;28;20503;-65
2022/01/27 06:52:14;;;;;;;39.70;20.90;;;0.50;99.90;;;;;;5068619;28;20948;-64
2022/01/27 06:54:43;;;;;;;35.53;20.67;;;0.40;99.90;;;;;;5068559;28;20450;-64
2022/01/27 06:57:10;;;;;;;38.90;22.00;;;0.40;99.90;;;;;;5068882;28;20435;-63
2022/01/27 06:59:37;;;;;;;36.40;20.90;;;0.30;99.90;;;;;;5068502;28;20470;-63
2022/01/27 07:02:04;;;;;;;37.77;21.33;;;0.30;99.90;;;;;;5068873;28;20485;-64
2022/01/27 07:04:31;;;;;;;41.83;22.20;;;0.30;99.90;;;;;;5068671;28;20550;-64
2022/01/27 07:06:58;;;;;;;46.63;23.70;;;0.30;99.90;;;;;;5069037;28;20480;-65
2022/01/27 07:09:25;;;;;;;41.63;23.07;;;0.30;99.90;;;;;;5069303;28;20578;-65
2022/01/27 07:11:53;;;;;;;41.77;22.70;;;0.30;99.90;;;;;;5069773;28;20498;-66
2022/01/27 07:14:20;;;;;;;37.97;20.17;;;0.40;99.90;;;;;;5072225;28;20444;-66
2022/01/27 07:16:47;;;;;;;37.27;19.73;;;0.40;99.90;;;;;;5073190;28;20545;-67
2022/01/27 07:19:14;;;;;;;35.63;19.50;;;0.40;99.90;;;;;;5072413;28;20444;-65
2022/01/27 07:21:41;;;;;;;44.50;20.50;;;0.40;99.90;;;;;;5068316;28;20977;-62
2022/01/27 07:24:08;;;;;;;40.50;21.10;;;0.40;99.90;;;;;;5070130;28;20455;-65
2022/01/27 07:26:35;;;;;;;36.53;18.20;;;0.40;99.90;;;;;;5070813;28;20554;-64
2022/01/27 07:29:03;;;;;;;34.00;18.53;;;0.40;99.90;;;;;;5070997;28;20486;-64
2022/01/27 07:31:30;;;;;;;28.93;17.23;;;0.30;99.90;;;;;;5070948;28;20545;-63
2022/01/27 07:33:58;;;;;;;34.80;15.97;;;0.30;99.90;;;;;;5070729;28;21024;-64
2022/01/27 07:36:26;;;;;;;33.50;16.73;;;0.20;99.90;;;;;;5070716;28;20490;-63
2022/01/27 07:38:52;;;;;;;35.47;16.27;;;0.20;99.90;;;;;;5070551;28;20464;-65
2022/01/27 07:41:19;;;;;;;31.30;16.30;;;0.20;99.90;;;;;;5070449;28;20714;-66
2022/01/27 07:43:47;;;;;;;32.23;18.10;;;0.10;99.90;;;;;;5070925;28;20540;-64
2022/01/27 07:46:16;;;;;;;37.23;19.10;;;0.00;99.90;;;;;;5071012;28;20844;-64
2022/01/27 07:48:43;;;;;;;39.53;19.83;;;0.00;99.90;;;;;;5070471;28;20550;-63
2022/01/27 07:51:11;;;;;;;41.30;19.47;;;0.00;99.90;;;;;;5070477;28;20447;-65
2022/01/27 07:53:42;;;;;;;34.33;18.03;;;0.00;99.90;;;;;;5070835;28;20543;-66
2022/01/27 07:56:09;;;;;;;34.67;16.07;;;0.10;99.90;;;;;;5070443;28;20450;-64
2022/01/27 07:58:38;;;;;;;32.53;17.13;;;0.00;99.90;;;;;;5070692;28;20532;-66
2022/01/27 08:01:07;;;;;;;31.33;15.77;;;0.00;99.90;;;;;;5070275;28;20874;-63
2022/01/27 08:03:36;;;;;;;37.10;16.37;;;-0.10;99.90;;;;;;5070439;28;20475;-64
2022/01/27 08:06:04;;;;;;;40.70;17.17;;;-0.20;99.90;;;;;;5069954;28;20824;-63
2022/01/27 08:08:31;;;;;;;35.93;18.00;;;-0.10;99.90;;;;;;5070249;28;20496;-65
2022/01/27 08:10:58;;;;;;;40.70;16.93;;;-0.10;99.90;;;;;;5070370;28;20804;-64
2022/01/27 08:13:25;;;;;;;41.20;19.30;;;-0.20;99.90;;;;;;5070253;28;20556;-64
2022/01/27 08:15:52;;;;;;;42.90;20.57;;;-0.20;99.90;;;;;;5070006;28;20973;-65
2022/01/27 08:18:19;;;;;;;40.80;18.50;;;-0.20;99.90;;;;;;5070155;28;20455;-64
2022/01/27 08:20:49;;;;;;;37.90;19.83;;;-0.20;99.90;;;;;;5069812;28;20917;-65
2022/01/27 08:23:16;;;;;;;32.53;17.50;;;-0.20;99.90;;;;;;5070384;28;20471;-65
2022/01/27 08:25:48;;;;;;;38.10;17.83;;;-0.20;99.90;;;;;;5069919;28;20583;-65
2022/01/27 08:28:22;;;;;;;39.53;20.47;;;-0.20;99.90;;;;;;5069753;28;20444;-63
2022/01/27 08:30:51;;;;;;;35.97;16.73;;;-0.20;99.90;;;;;;5069340;28;21014;-63
2022/01/27 08:33:19;;;;;;;35.57;16.73;;;-0.20;99.90;;;;;;5069639;28;20470;-64
2022/01/27 08:35:47;;;;;;;43.67;20.60;;;-0.20;99.90;;;;;;5069891;28;20467;-64
2022/01/27 08:38:15;;;;;;;45.90;17.80;;;-0.20;99.90;;;;;;5069573;28;20446;-63
2022/01/27 08:40:42;;;;;;;40.20;19.07;;;-0.20;99.90;;;;;;5069255;28;20505;-63
2022/01/27 08:43:09;;;;;;;40.43;18.57;;;-0.20;99.90;;;;;;5069280;28;20618;-64
2022/01/27 08:45:38;;;;;;;40.37;17.17;;;-0.20;99.90;;;;;;5069150;28;20454;-65
2022/01/27 08:48:06;;;;;;;37.60;17.77;;;-0.20;99.90;;;;;;5069324;28;20487;-65
2022/01/27 08:50:35;;;;;;;39.13;18.90;;;-0.10;99.90;;;;;;5068607;28;21192;-65
2022/01/27 08:53:03;;;;;;;41.40;18.90;;;-0.10;99.90;;;;;;5069164;28;20476;-65
2022/01/27 08:55:30;;;;;;;40.47;18.70;;;0.00;99.90;;;;;;5068911;28;21138;-63
2022/01/27 08:57:57;;;;;;;36.00;17.20;;;0.00;99.90;;;;;;5069133;28;20434;-65
2022/01/27 09:00:24;;;;;;;38.83;18.60;;;0.00;99.90;;;;;;5068639;28;20808;-65
2022/01/27 09:02:51;;;;;;;32.73;15.80;;;0.10;99.90;;;;;;5069059;28;21014;-65
2022/01/27 09:05:18;;;;;;;34.10;17.33;;;0.10;99.90;;;;;;5068928;28;20607;-65
2022/01/27 09:07:45;;;;;;;33.60;16.93;;;0.20;99.90;;;;;;5068787;28;20539;-64
2022/01/27 09:10:15;;;;;;;36.03;17.03;;;0.30;99.90;;;;;;5068434;28;21034;-64
2022/01/27 09:12:42;;;;;;;32.23;16.23;;;0.40;99.90;;;;;;5068583;28;20984;-65
2022/01/27 09:15:10;;;;;;;31.90;16.50;;;0.50;99.90;;;;;;5068897;28;20945;-63
2022/01/27 09:17:40;;;;;;;34.93;16.60;;;0.60;99.90;;;;;;5068469;28;20998;-63
2022/01/27 09:20:10;;;;;;;32.40;15.47;;;0.70;99.90;;;;;;5068441;28;20454;-63
2022/01/27 09:22:38;;;;;;;35.67;16.70;;;0.90;99.90;;;;;;5068638;28;20472;-63
2022/01/27 09:25:14;;;;;;;29.87;15.97;;;1.00;99.90;;;;;;5068494;28;20776;-63
2022/01/27 09:27:43;;;;;;;29.63;16.60;;;1.10;99.90;;;;;;5068447;28;20462;-64
2022/01/27 09:30:12;;;;;;;27.33;14.90;;;1.20;99.90;;;;;;5068324;28;20508;-64
2022/01/27 09:32:39;;;;;;;27.30;14.20;;;1.30;99.90;;;;;;5069429;28;20471;-65
2022/01/27 09:35:07;;;;;;;29.30;17.70;;;1.40;99.90;;;;;;5069311;28;20476;-64
2022/01/27 09:37:34;;;;;;;28.43;14.63;;;1.60;99.90;;;;;;5068776;28;20857;-65
2022/01/27 09:40:01;;;;;;;23.53;14.70;;;1.70;99.90;;;;;;5068992;28;20470;-65
2022/01/27 09:42:31;;;;;;;24.20;13.03;;;1.90;99.90;;;;;;5068877;28;21014;-65
2022/01/27 09:45:03;;;;;;;23.33;12.90;;;2.00;99.90;;;;;;5069594;28;20455;-65
2022/01/27 09:47:32;;;;;;;20.30;11.97;;;2.10;99.90;;;;;;5069393;28;20542;-64
2022/01/27 09:50:09;;;;;;;20.77;12.70;;;2.20;99.90;;;;;;5068716;28;20471;-64
2022/01/27 09:52:36;;;;;;;20.80;13.10;;;2.30;99.90;;;;;;5069473;28;20804;-65
2022/01/27 09:55:04;;;;;;;21.00;12.80;;;2.30;99.90;;;;;;5069134;28;20481;-64
2022/01/27 09:57:31;;;;;;;24.07;13.00;;;2.50;99.90;;;;;;5069158;28;20956;-64
2022/01/27 09:59:58;;;;;;;23.17;14.30;;;2.60;99.90;;;;;;5068684;28;20446;-64
2022/01/27 10:02:27;;;;;;;24.40;12.97;;;2.60;99.90;;;;;;5068880;28;20471;-65
2022/01/27 10:04:57;;;;;;;24.27;13.97;;;2.70;99.90;;;;;;5068742;28;20452;-64
2022/01/27 10:07:29;;;;;;;21.67;12.40;;;2.70;99.90;;;;;;5068977;28;20510;-63
2022/01/27 10:09:59;;;;;;;23.13;13.03;;;2.70;99.90;;;;;;5068598;28;20521;-64
2022/01/27 10:12:27;;;;;;;20.30;12.37;;;2.80;99.90;;;;;;5068950;28;20471;-64
2022/01/27 10:14:59;;;;;;;21.87;12.80;;;2.80;99.90;;;;;;5068889;28;20447;-64
2022/01/27 10:17:29;;;;;;;21.03;13.33;;;2.90;99.90;;;;;;5068964;28;20812;-64
2022/01/27 10:19:57;;;;;;;22.90;12.37;;;2.90;99.90;;;;;;5068509;28;20451;-65
2022/01/27 10:22:24;;;;;;;19.20;10.73;;;2.90;99.90;;;;;;5068868;28;20899;-65
2022/01/27 10:25:01;;;;;;;20.27;11.03;;;2.90;99.90;;;;;;5069079;28;20553;-64
2022/01/27 10:27:33;;;;;;;18.00;11.50;;;2.80;99.90;;;;;;5068666;28;20446;-64
2022/01/27 10:32:49;;;;;;;17.73;10.70;;;2.90;99.90;;;;;;5068330;28;20953;-64
2022/01/27 10:35:20;;;;;;;21.80;11.40;;;2.90;99.90;;;;;;5068802;28;20429;-64
2022/01/27 10:37:59;;;;;;;21.20;12.27;;;3.00;99.90;;;;;;5068913;28;20497;-64
2022/01/27 10:40:29;;;;;;;16.40;10.50;;;3.10;99.90;;;;;;5068609;28;20993;-64
2022/01/27 10:43:04;;;;;;;16.53;10.77;;;3.20;99.90;;;;;;5068853;28;20562;-64
2022/01/27 10:45:32;;;;;;;17.77;11.53;;;3.20;99.90;;;;;;5068890;28;20474;-64
2022/01/27 10:48:19;;;;;;;20.20;11.20;;;3.20;99.90;;;;;;5069260;28;20474;-65
2022/01/27 10:50:54;;;;;;;16.80;10.43;;;3.20;99.90;;;;;;5072502;28;20478;-63
2022/01/27 10:53:21;;;;;;;14.80;10.20;;;3.30;99.90;;;;;;5072773;28;20475;-64
2022/01/27 10:56:04;;;;;;;14.00;9.73;;;3.40;99.90;;;;;;5072894;28;20458;-65
2022/01/27 10:58:31;;;;;;;18.53;10.87;;;3.50;99.90;;;;;;5072692;28;20539;-64
2022/01/27 11:00:59;;;;;;;15.20;9.67;;;3.50;99.90;;;;;;5072191;28;20474;-64
2022/01/27 11:03:28;;;;;;;15.90;9.20;;;3.50;99.90;;;;;;5072356;28;20474;-65
2022/01/27 11:05:56;;;;;;;16.97;11.70;;;3.50;99.90;;;;;;5072260;28;20439;-65
2022/01/27 11:08:26;;;;;;;18.10;9.90;;;3.50;99.90;;;;;;5072319;28;20455;-65
2022/01/27 11:10:53;;;;;;;15.47;9.00;;;3.70;99.90;;;;;;5071752;28;20973;-65
2022/01/27 11:13:23;;;;;;;14.60;10.00;;;3.70;99.90;;;;;;5072183;28;20872;-65
2022/01/27 11:15:54;;;;;;;17.47;9.97;;;3.80;99.90;;;;;;5071898;28;20824;-65
2022/01/27 11:18:24;;;;;;;14.10;9.00;;;3.80;99.90;;;;;;5071936;28;21032;-65
2022/01/27 11:20:58;;;;;;;14.27;8.80;;;3.90;99.90;;;;;;5071872;28;20543;-65
2022/01/27 11:24:03;;;;;;;15.53;9.10;;;4.00;99.90;;;;;;5071739;28;20548;-65
2022/01/27 11:26:31;;;;;;;14.63;8.67;;;4.00;99.90;;;;;;5071776;28;20945;-65
2022/01/27 11:28:59;;;;;;;14.00;10.00;;;4.00;99.90;;;;;;5071809;28;20455;-65
2022/01/27 11:31:40;;;;;;;13.60;8.10;;;3.90;99.90;;;;;;5071188;28;21103;-65
2022/01/27 11:34:09;;;;;;;14.70;9.20;;;3.90;99.90;;;;;;5072006;28;20470;-65
2022/01/27 11:36:39;;;;;;;18.37;9.60;;;4.00;99.90;;;;;;5071699;28;20460;-65
2022/01/27 11:39:12;;;;;;;12.60;8.90;;;4.00;99.90;;;;;;5071634;28;20455;-65
2022/01/27 11:41:43;;;;;;;14.90;9.13;;;4.00;99.90;;;;;;5071621;28;20809;-65
2022/01/27 11:44:31;;;;;;;14.97;8.03;;;4.00;99.90;;;;;;5071438;28;20435;-65
2022/01/27 11:47:21;;;;;;;14.33;9.03;;;4.10;99.90;;;;;;5071415;28;20485;-65
2022/01/27 11:49:59;;;;;;;13.77;8.73;;;4.10;99.90;;;;;;5071235;28;20497;-65
2022/01/27 11:52:29;;;;;;;16.03;8.30;;;4.10;99.90;;;;;;5071233;28;20458;-65
2022/01/27 11:54:58;;;;;;;11.60;8.13;;;4.20;99.90;;;;;;5071315;28;20454;-65
2022/01/27 11:57:42;;;;;;;15.80;9.50;;;4.20;99.90;;;;;;5071028;28;20471;-65
2022/01/27 12:00:12;;;;;;;12.50;8.67;;;4.30;99.90;;;;;;5070538;28;21054;-64
2022/01/27 12:03:12;;;;;;;13.00;8.70;;;4.20;99.90;;;;;;5070994;28;20471;-64
2022/01/27 12:05:41;;;;;;;13.50;8.57;;;4.30;99.90;;;;;;5071129;28;20491;-65
2022/01/27 12:08:26;;;;;;;13.23;8.63;;;4.40;99.90;;;;;;5071128;28;20455;-65
2022/01/27 12:10:56;;;;;;;16.33;9.27;;;4.50;99.90;;;;;;5070643;28;20566;-64
2022/01/27 12:13:58;;;;;;;14.83;8.70;;;4.60;99.90;;;;;;5070891;28;20976;-65
2022/01/27 12:19:09;;;;;;;16.83;9.83;;;4.70;99.90;;;;;;5068430;28;20439;-64
2022/01/27 12:21:39;;;;;;;16.10;10.83;;;4.70;99.90;;;;;;5070548;28;20453;-64
2022/01/27 12:24:21;;;;;;;13.20;9.10;;;4.90;99.90;;;;;;5070664;28;20517;-64
2022/01/27 12:26:50;;;;;;;15.27;9.63;;;5.00;99.90;;;;;;5070654;28;20987;-65
2022/01/27 12:29:31;;;;;;;13.60;9.30;;;5.00;99.90;;;;;;5070520;28;20497;-65
2022/01/27 12:31:59;;;;;;;12.90;9.57;;;4.90;99.90;;;;;;5070320;28;21011;-65
2022/01/27 12:34:26;;;;;;;13.77;8.83;;;4.90;99.90;;;;;;5070439;28;20933;-65
2022/01/27 12:36:58;;;;;;;15.67;10.50;;;5.00;99.90;;;;;;5070292;28;20515;-64
2022/01/27 12:39:29;;;;;;;22.53;12.30;;;4.90;99.90;;;;;;5070055;28;20452;-65
2022/01/27 12:41:55;;;;;;;18.83;11.00;;;5.00;99.90;;;;;;5070428;28;21036;-65
2022/01/27 12:44:24;;;;;;;16.53;11.17;;;5.00;99.90;;;;;;5070307;28;20823;-65
2022/01/27 12:47:14;;;;;;;14.80;10.27;;;5.00;99.90;;;;;;5070258;28;20530;-65
2022/01/27 12:49:44;;;;;;;15.63;9.77;;;5.00;99.90;;;;;;5067885;28;20542;-65
2022/01/27 12:52:15;;;;;;;13.87;10.77;;;5.00;99.90;;;;;;5059615;28;20488;-64
2022/01/27 12:54:45;;;;;;;14.90;10.50;;;5.10;99.90;;;;;;5063792;28;20470;-64
2022/01/27 12:57:13;;;;;;;17.00;11.00;;;5.00;99.90;;;;;;5054877;28;20452;-64
2022/01/27 12:59:45;;;;;;;16.67;12.70;;;4.90;99.90;;;;;;5064773;28;20447;-65
2022/01/27 13:02:12;;;;;;;18.20;11.63;;;4.80;99.90;;;;;;5068590;28;20838;-63
2022/01/27 13:04:42;;;;;;;15.67;10.03;;;4.80;99.90;;;;;;5068770;28;20440;-63
2022/01/27 13:07:09;;;;;;;16.37;10.70;;;4.90;99.90;;;;;;5071764;28;20853;-63
2022/01/27 13:09:38;;;;;;;15.90;11.40;;;4.80;99.90;;;;;;5071249;28;21008;-63
2022/01/27 13:12:16;;;;;;;15.50;10.80;;;4.90;99.90;;;;;;5064129;28;20490;-63
2022/01/27 13:15:00;;;;;;;15.77;10.47;;;5.00;99.90;;;;;;5067811;28;20475;-62
2022/01/27 13:17:34;;;;;;;18.77;11.57;;;4.90;99.90;;;;;;5069814;28;20443;-63
2022/01/27 13:20:19;;;;;;;18.53;10.27;;;5.00;99.90;;;;;;5071385;28;21235;-64
2022/01/27 13:22:47;;;;;;;17.93;11.67;;;5.00;99.90;;;;;;5071349;28;20480;-63